sensor_id;sensor_type;location;lat;lon;timestamp;P1;durP1;ratioP1;P2;durP2;ratioP2
60730;SDS011;46580;52.114;11.674;2023-07-13T00:02:09;5.40;;;2.30;;
60730;SDS011;46580;52.114;11.674;2023-07-13T00:04:36;3.23;;;2.53;;
60730;SDS011;46580;52.114;11.674;2023-07-13T00:07:01;2.53;;;1.70;;
60730;SDS011;46580;52.114;11.674;2023-07-13T00:09:27;2.43;;;1.67;;
60730;SDS011;46580;52.114;11.674;2023-07-13T00:11:54;4.77;;;1.90;;
60730;SDS011;46580;52.114;11.674;2023-07-13T00:14:20;2.43;;;1.50;;
60730;SDS011;46580;52.114;11.674;2023-07-13T00:16:46;3.90;;;1.87;;
60730;SDS011;46580;52.114;11.674;2023-07-13T00:19:12;3.63;;;2.10;;
60730;SDS011;46580;52.114;11.674;2023-07-13T00:21:38;4.97;;;1.90;;
60730;SDS011;46580;52.114;11.674;2023-07-13T00:24:05;3.70;;;1.67;;
60730;SDS011;46580;52.114;11.674;2023-07-13T00:26:32;2.73;;;1.60;;
60730;SDS011;46580;52.114;11.674;2023-07-13T00:28:58;1.90;;;1.50;;
60730;SDS011;46580;52.114;11.674;2023-07-13T00:31:23;3.77;;;1.83;;
60730;SDS011;46580;52.114;11.674;2023-07-13T00:33:49;2.27;;;1.53;;
60730;SDS011;46580;52.114;11.674;2023-07-13T00:36:14;2.63;;;1.57;;
60730;SDS011;46580;52.114;11.674;2023-07-13T00:38:39;2.23;;;1.50;;
60730;SDS011;46580;52.114;11.674;2023-07-13T00:41:05;4.67;;;2.03;;
60730;SDS011;46580;52.114;11.674;2023-07-13T00:43:30;2.47;;;1.60;;
60730;SDS011;46580;52.114;11.674;2023-07-13T00:48:23;3.27;;;1.80;;
60730;SDS011;46580;52.114;11.674;2023-07-13T00:50:55;2.57;;;1.90;;
60730;SDS011;46580;52.114;11.674;2023-07-13T00:53:23;3.93;;;1.67;;
60730;SDS011;46580;52.114;11.674;2023-07-13T00:55:50;4.03;;;1.90;;
60730;SDS011;46580;52.114;11.674;2023-07-13T00:58:18;3.53;;;1.93;;
60730;SDS011;46580;52.114;11.674;2023-07-13T01:00:44;4.43;;;2.00;;
60730;SDS011;46580;52.114;11.674;2023-07-13T01:03:11;3.67;;;2.40;;
60730;SDS011;46580;52.114;11.674;2023-07-13T01:05:37;3.40;;;1.70;;
60730;SDS011;46580;52.114;11.674;2023-07-13T01:08:04;5.87;;;2.50;;
60730;SDS011;46580;52.114;11.674;2023-07-13T01:10:30;3.37;;;2.10;;
60730;SDS011;46580;52.114;11.674;2023-07-13T01:13:03;3.00;;;2.47;;
60730;SDS011;46580;52.114;11.674;2023-07-13T01:15:33;4.67;;;2.33;;
60730;SDS011;46580;52.114;11.674;2023-07-13T01:18:02;5.50;;;2.67;;
60730;SDS011;46580;52.114;11.674;2023-07-13T01:20:28;4.17;;;2.30;;
60730;SDS011;46580;52.114;11.674;2023-07-13T01:22:53;4.23;;;2.57;;
60730;SDS011;46580;52.114;11.674;2023-07-13T01:25:19;7.53;;;2.60;;
60730;SDS011;46580;52.114;11.674;2023-07-13T01:27:46;6.23;;;2.43;;
60730;SDS011;46580;52.114;11.674;2023-07-13T01:30:11;5.00;;;2.20;;
60730;SDS011;46580;52.114;11.674;2023-07-13T01:32:37;6.37;;;2.50;;
60730;SDS011;46580;52.114;11.674;2023-07-13T01:35:02;4.17;;;2.57;;
60730;SDS011;46580;52.114;11.674;2023-07-13T01:37:28;3.17;;;2.50;;
60730;SDS011;46580;52.114;11.674;2023-07-13T01:39:58;3.77;;;2.43;;
60730;SDS011;46580;52.114;11.674;2023-07-13T01:42:23;2.90;;;2.40;;
60730;SDS011;46580;52.114;11.674;2023-07-13T01:44:49;4.60;;;2.90;;
60730;SDS011;46580;52.114;11.674;2023-07-13T01:47:14;4.93;;;2.80;;
60730;SDS011;46580;52.114;11.674;2023-07-13T01:49:40;4.63;;;2.50;;
60730;SDS011;46580;52.114;11.674;2023-07-13T01:52:06;5.73;;;2.63;;
60730;SDS011;46580;52.114;11.674;2023-07-13T01:54:31;4.97;;;2.40;;
60730;SDS011;46580;52.114;11.674;2023-07-13T01:56:58;6.07;;;2.43;;
60730;SDS011;46580;52.114;11.674;2023-07-13T01:59:24;3.80;;;2.50;;
60730;SDS011;46580;52.114;11.674;2023-07-13T02:01:49;3.20;;;2.33;;
60730;SDS011;46580;52.114;11.674;2023-07-13T02:04:14;3.73;;;2.27;;
60730;SDS011;46580;52.114;11.674;2023-07-13T02:06:40;8.13;;;2.67;;
60730;SDS011;46580;52.114;11.674;2023-07-13T02:09:05;6.03;;;2.90;;
60730;SDS011;46580;52.114;11.674;2023-07-13T02:11:32;4.93;;;2.70;;
60730;SDS011;46580;52.114;11.674;2023-07-13T02:14:01;4.97;;;2.63;;
60730;SDS011;46580;52.114;11.674;2023-07-13T02:16:28;5.87;;;2.40;;
60730;SDS011;46580;52.114;11.674;2023-07-13T02:18:53;4.87;;;2.33;;
60730;SDS011;46580;52.114;11.674;2023-07-13T02:21:20;4.60;;;2.37;;
60730;SDS011;46580;52.114;11.674;2023-07-13T02:23:45;4.57;;;2.30;;
60730;SDS011;46580;52.114;11.674;2023-07-13T02:26:10;4.77;;;2.63;;
60730;SDS011;46580;52.114;11.674;2023-07-13T02:28:36;2.70;;;2.00;;
60730;SDS011;46580;52.114;11.674;2023-07-13T02:31:08;5.07;;;2.43;;
60730;SDS011;46580;52.114;11.674;2023-07-13T02:33:35;3.33;;;2.37;;
60730;SDS011;46580;52.114;11.674;2023-07-13T02:36:00;3.53;;;2.80;;
60730;SDS011;46580;52.114;11.674;2023-07-13T02:38:26;5.10;;;2.60;;
60730;SDS011;46580;52.114;11.674;2023-07-13T02:40:52;7.00;;;2.90;;
60730;SDS011;46580;52.114;11.674;2023-07-13T02:43:17;5.10;;;2.83;;
60730;SDS011;46580;52.114;11.674;2023-07-13T02:45:43;4.03;;;2.60;;
60730;SDS011;46580;52.114;11.674;2023-07-13T02:48:09;7.63;;;2.23;;
60730;SDS011;46580;52.114;11.674;2023-07-13T02:50:35;3.37;;;2.50;;
60730;SDS011;46580;52.114;11.674;2023-07-13T02:53:00;5.20;;;2.47;;
60730;SDS011;46580;52.114;11.674;2023-07-13T02:55:25;4.73;;;2.47;;
60730;SDS011;46580;52.114;11.674;2023-07-13T02:57:50;4.93;;;2.23;;
60730;SDS011;46580;52.114;11.674;2023-07-13T03:00:16;6.00;;;2.30;;
60730;SDS011;46580;52.114;11.674;2023-07-13T03:02:42;3.17;;;2.70;;
60730;SDS011;46580;52.114;11.674;2023-07-13T03:05:07;4.07;;;2.40;;
60730;SDS011;46580;52.114;11.674;2023-07-13T03:07:35;6.43;;;2.30;;
60730;SDS011;46580;52.114;11.674;2023-07-13T03:10:01;3.13;;;2.07;;
60730;SDS011;46580;52.114;11.674;2023-07-13T03:12:27;5.67;;;2.90;;
60730;SDS011;46580;52.114;11.674;2023-07-13T03:14:52;3.23;;;2.30;;
60730;SDS011;46580;52.114;11.674;2023-07-13T03:17:17;4.20;;;2.40;;
60730;SDS011;46580;52.114;11.674;2023-07-13T03:19:44;3.17;;;2.40;;
60730;SDS011;46580;52.114;11.674;2023-07-13T03:22:09;3.87;;;2.57;;
60730;SDS011;46580;52.114;11.674;2023-07-13T03:24:35;7.60;;;3.00;;
60730;SDS011;46580;52.114;11.674;2023-07-13T03:27:03;6.93;;;2.60;;
60730;SDS011;46580;52.114;11.674;2023-07-13T03:29:29;5.53;;;3.13;;
60730;SDS011;46580;52.114;11.674;2023-07-13T03:31:54;4.87;;;2.47;;
60730;SDS011;46580;52.114;11.674;2023-07-13T03:34:20;3.73;;;2.17;;
60730;SDS011;46580;52.114;11.674;2023-07-13T03:36:45;4.50;;;2.10;;
60730;SDS011;46580;52.114;11.674;2023-07-13T03:39:10;4.90;;;2.50;;
60730;SDS011;46580;52.114;11.674;2023-07-13T03:41:36;4.13;;;2.27;;
60730;SDS011;46580;52.114;11.674;2023-07-13T03:44:01;5.43;;;2.07;;
60730;SDS011;46580;52.114;11.674;2023-07-13T03:46:26;7.40;;;2.20;;
60730;SDS011;46580;52.114;11.674;2023-07-13T03:48:52;2.97;;;1.90;;
60730;SDS011;46580;52.114;11.674;2023-07-13T03:51:18;3.73;;;1.90;;
60730;SDS011;46580;52.114;11.674;2023-07-13T03:53:44;4.10;;;2.00;;
60730;SDS011;46580;52.114;11.674;2023-07-13T03:56:12;6.27;;;2.57;;
60730;SDS011;46580;52.114;11.674;2023-07-13T03:58:40;3.37;;;2.07;;
60730;SDS011;46580;52.114;11.674;2023-07-13T04:01:08;3.63;;;2.17;;
60730;SDS011;46580;52.114;11.674;2023-07-13T04:03:34;2.30;;;2.10;;
60730;SDS011;46580;52.114;11.674;2023-07-13T04:06:01;5.03;;;2.60;;
60730;SDS011;46580;52.114;11.674;2023-07-13T04:08:28;3.83;;;1.90;;
60730;SDS011;46580;52.114;11.674;2023-07-13T04:10:56;5.07;;;2.77;;
60730;SDS011;46580;52.114;11.674;2023-07-13T04:13:22;6.20;;;2.40;;
60730;SDS011;46580;52.114;11.674;2023-07-13T04:15:48;3.23;;;2.17;;
60730;SDS011;46580;52.114;11.674;2023-07-13T04:18:14;2.60;;;2.30;;
60730;SDS011;46580;52.114;11.674;2023-07-13T04:20:40;3.50;;;2.50;;
60730;SDS011;46580;52.114;11.674;2023-07-13T04:23:05;7.93;;;2.50;;
60730;SDS011;46580;52.114;11.674;2023-07-13T04:25:30;3.70;;;2.80;;
60730;SDS011;46580;52.114;11.674;2023-07-13T04:27:56;4.50;;;3.07;;
60730;SDS011;46580;52.114;11.674;2023-07-13T04:30:21;4.40;;;2.90;;
60730;SDS011;46580;52.114;11.674;2023-07-13T04:32:47;4.90;;;3.07;;
60730;SDS011;46580;52.114;11.674;2023-07-13T04:35:13;4.07;;;3.03;;
60730;SDS011;46580;52.114;11.674;2023-07-13T04:37:39;4.00;;;2.83;;
60730;SDS011;46580;52.114;11.674;2023-07-13T04:40:05;4.30;;;3.40;;
60730;SDS011;46580;52.114;11.674;2023-07-13T04:42:31;6.97;;;3.33;;
60730;SDS011;46580;52.114;11.674;2023-07-13T04:44:56;4.43;;;2.77;;
60730;SDS011;46580;52.114;11.674;2023-07-13T04:47:22;5.53;;;2.50;;
60730;SDS011;46580;52.114;11.674;2023-07-13T04:49:47;4.73;;;3.27;;
60730;SDS011;46580;52.114;11.674;2023-07-13T04:52:13;3.90;;;3.00;;
60730;SDS011;46580;52.114;11.674;2023-07-13T04:54:38;4.83;;;2.50;;
60730;SDS011;46580;52.114;11.674;2023-07-13T04:57:04;7.27;;;3.33;;
60730;SDS011;46580;52.114;11.674;2023-07-13T04:59:33;4.87;;;2.77;;
60730;SDS011;46580;52.114;11.674;2023-07-13T05:01:58;9.73;;;3.57;;
60730;SDS011;46580;52.114;11.674;2023-07-13T05:04:24;6.43;;;2.97;;
60730;SDS011;46580;52.114;11.674;2023-07-13T05:06:49;5.50;;;2.87;;
60730;SDS011;46580;52.114;11.674;2023-07-13T05:09:15;5.30;;;3.03;;
60730;SDS011;46580;52.114;11.674;2023-07-13T05:11:40;4.83;;;2.90;;
60730;SDS011;46580;52.114;11.674;2023-07-13T05:14:06;5.63;;;3.27;;
60730;SDS011;46580;52.114;11.674;2023-07-13T05:16:31;5.97;;;2.80;;
60730;SDS011;46580;52.114;11.674;2023-07-13T05:18:57;8.43;;;3.93;;
60730;SDS011;46580;52.114;11.674;2023-07-13T05:21:22;4.20;;;2.40;;
60730;SDS011;46580;52.114;11.674;2023-07-13T05:23:48;4.47;;;2.50;;
60730;SDS011;46580;52.114;11.674;2023-07-13T05:26:13;6.83;;;2.90;;
60730;SDS011;46580;52.114;11.674;2023-07-13T05:28:39;4.67;;;1.83;;
60730;SDS011;46580;52.114;11.674;2023-07-13T05:31:05;6.90;;;3.03;;
60730;SDS011;46580;52.114;11.674;2023-07-13T05:33:32;9.97;;;2.87;;
60730;SDS011;46580;52.114;11.674;2023-07-13T05:35:57;4.43;;;2.63;;
60730;SDS011;46580;52.114;11.674;2023-07-13T05:38:25;9.07;;;3.13;;
60730;SDS011;46580;52.114;11.674;2023-07-13T05:40:50;5.93;;;2.70;;
60730;SDS011;46580;52.114;11.674;2023-07-13T05:43:16;7.43;;;2.70;;
60730;SDS011;46580;52.114;11.674;2023-07-13T05:45:41;5.90;;;2.50;;
60730;SDS011;46580;52.114;11.674;2023-07-13T05:48:07;6.57;;;2.33;;
60730;SDS011;46580;52.114;11.674;2023-07-13T05:50:32;8.53;;;2.67;;
60730;SDS011;46580;52.114;11.674;2023-07-13T05:52:57;6.07;;;2.60;;
60730;SDS011;46580;52.114;11.674;2023-07-13T05:55:23;6.63;;;2.23;;
60730;SDS011;46580;52.114;11.674;2023-07-13T05:57:48;6.07;;;2.80;;
60730;SDS011;46580;52.114;11.674;2023-07-13T06:00:14;7.57;;;2.57;;
60730;SDS011;46580;52.114;11.674;2023-07-13T06:02:40;10.63;;;2.50;;
60730;SDS011;46580;52.114;11.674;2023-07-13T06:05:05;3.97;;;1.77;;
60730;SDS011;46580;52.114;11.674;2023-07-13T06:07:31;6.73;;;2.40;;
60730;SDS011;46580;52.114;11.674;2023-07-13T06:09:56;6.17;;;2.23;;
60730;SDS011;46580;52.114;11.674;2023-07-13T06:12:21;4.43;;;2.10;;
60730;SDS011;46580;52.114;11.674;2023-07-13T06:14:47;3.33;;;2.20;;
60730;SDS011;46580;52.114;11.674;2023-07-13T06:17:12;6.63;;;2.10;;
60730;SDS011;46580;52.114;11.674;2023-07-13T06:19:37;3.63;;;1.93;;
60730;SDS011;46580;52.114;11.674;2023-07-13T06:22:03;4.07;;;1.63;;
60730;SDS011;46580;52.114;11.674;2023-07-13T06:24:28;3.70;;;1.87;;
60730;SDS011;46580;52.114;11.674;2023-07-13T06:26:54;4.10;;;1.80;;
60730;SDS011;46580;52.114;11.674;2023-07-13T06:29:19;4.80;;;1.63;;
60730;SDS011;46580;52.114;11.674;2023-07-13T06:31:44;4.13;;;1.60;;
60730;SDS011;46580;52.114;11.674;2023-07-13T06:34:10;4.87;;;2.10;;
60730;SDS011;46580;52.114;11.674;2023-07-13T06:36:35;5.63;;;1.90;;
60730;SDS011;46580;52.114;11.674;2023-07-13T06:39:01;6.47;;;1.90;;
60730;SDS011;46580;52.114;11.674;2023-07-13T06:41:27;10.17;;;1.80;;
60730;SDS011;46580;52.114;11.674;2023-07-13T06:43:53;6.67;;;1.90;;
60730;SDS011;46580;52.114;11.674;2023-07-13T06:46:20;6.07;;;2.60;;
60730;SDS011;46580;52.114;11.674;2023-07-13T06:48:46;6.33;;;2.37;;
60730;SDS011;46580;52.114;11.674;2023-07-13T06:51:12;10.80;;;2.10;;
60730;SDS011;46580;52.114;11.674;2023-07-13T06:53:37;4.73;;;1.90;;
60730;SDS011;46580;52.114;11.674;2023-07-13T06:56:02;3.83;;;2.00;;
60730;SDS011;46580;52.114;11.674;2023-07-13T06:58:28;6.00;;;1.60;;
60730;SDS011;46580;52.114;11.674;2023-07-13T07:00:53;6.40;;;2.10;;
60730;SDS011;46580;52.114;11.674;2023-07-13T07:03:19;3.47;;;2.07;;
60730;SDS011;46580;52.114;11.674;2023-07-13T07:05:45;3.87;;;1.83;;
60730;SDS011;46580;52.114;11.674;2023-07-13T07:08:10;4.00;;;1.93;;
60730;SDS011;46580;52.114;11.674;2023-07-13T07:10:36;2.70;;;1.60;;
60730;SDS011;46580;52.114;11.674;2023-07-13T07:13:02;2.63;;;1.53;;
60730;SDS011;46580;52.114;11.674;2023-07-13T07:15:28;3.63;;;1.60;;
60730;SDS011;46580;52.114;11.674;2023-07-13T07:17:53;5.27;;;1.80;;
60730;SDS011;46580;52.114;11.674;2023-07-13T07:20:19;4.03;;;1.80;;
60730;SDS011;46580;52.114;11.674;2023-07-13T07:22:45;4.83;;;1.50;;
60730;SDS011;46580;52.114;11.674;2023-07-13T07:25:11;3.40;;;1.43;;
60730;SDS011;46580;52.114;11.674;2023-07-13T07:27:36;3.60;;;1.60;;
60730;SDS011;46580;52.114;11.674;2023-07-13T07:30:02;4.40;;;1.53;;
60730;SDS011;46580;52.114;11.674;2023-07-13T07:32:28;9.60;;;1.50;;
60730;SDS011;46580;52.114;11.674;2023-07-13T07:34:55;4.90;;;1.20;;
60730;SDS011;46580;52.114;11.674;2023-07-13T07:37:21;9.10;;;1.53;;
60730;SDS011;46580;52.114;11.674;2023-07-13T07:39:46;5.03;;;1.50;;
60730;SDS011;46580;52.114;11.674;2023-07-13T07:42:12;6.40;;;1.67;;
60730;SDS011;46580;52.114;11.674;2023-07-13T07:44:37;4.00;;;1.40;;
60730;SDS011;46580;52.114;11.674;2023-07-13T07:47:05;4.43;;;1.60;;
60730;SDS011;46580;52.114;11.674;2023-07-13T07:49:31;6.37;;;1.53;;
60730;SDS011;46580;52.114;11.674;2023-07-13T07:51:56;4.97;;;1.73;;
60730;SDS011;46580;52.114;11.674;2023-07-13T07:54:23;7.03;;;1.60;;
60730;SDS011;46580;52.114;11.674;2023-07-13T07:56:48;4.67;;;2.30;;
60730;SDS011;46580;52.114;11.674;2023-07-13T07:59:14;5.70;;;2.50;;
60730;SDS011;46580;52.114;11.674;2023-07-13T08:01:39;12.20;;;2.00;;
60730;SDS011;46580;52.114;11.674;2023-07-13T08:04:05;6.13;;;2.10;;
60730;SDS011;46580;52.114;11.674;2023-07-13T08:06:31;4.03;;;1.67;;
60730;SDS011;46580;52.114;11.674;2023-07-13T08:08:58;4.20;;;1.73;;
60730;SDS011;46580;52.114;11.674;2023-07-13T08:11:24;5.20;;;1.67;;
60730;SDS011;46580;52.114;11.674;2023-07-13T08:13:49;8.93;;;2.40;;
60730;SDS011;46580;52.114;11.674;2023-07-13T08:16:15;7.33;;;1.73;;
60730;SDS011;46580;52.114;11.674;2023-07-13T08:18:40;7.87;;;2.23;;
60730;SDS011;46580;52.114;11.674;2023-07-13T08:21:06;4.30;;;2.10;;
60730;SDS011;46580;52.114;11.674;2023-07-13T08:23:33;5.17;;;2.17;;
60730;SDS011;46580;52.114;11.674;2023-07-13T08:25:59;3.30;;;1.60;;
60730;SDS011;46580;52.114;11.674;2023-07-13T08:28:26;5.60;;;2.23;;
60730;SDS011;46580;52.114;11.674;2023-07-13T08:30:52;9.80;;;2.33;;
60730;SDS011;46580;52.114;11.674;2023-07-13T08:33:18;3.93;;;2.00;;
60730;SDS011;46580;52.114;11.674;2023-07-13T08:35:48;6.77;;;1.90;;
60730;SDS011;46580;52.114;11.674;2023-07-13T08:38:14;7.03;;;1.93;;
60730;SDS011;46580;52.114;11.674;2023-07-13T08:40:41;2.43;;;1.60;;
60730;SDS011;46580;52.114;11.674;2023-07-13T08:43:09;11.90;;;1.80;;
60730;SDS011;46580;52.114;11.674;2023-07-13T08:48:38;3.33;;;1.80;;
60730;SDS011;46580;52.114;11.674;2023-07-13T08:53:47;3.97;;;1.43;;
60730;SDS011;46580;52.114;11.674;2023-07-13T08:56:23;7.50;;;1.63;;
60730;SDS011;46580;52.114;11.674;2023-07-13T08:58:53;5.80;;;1.40;;
60730;SDS011;46580;52.114;11.674;2023-07-13T09:01:39;3.83;;;1.17;;
60730;SDS011;46580;52.114;11.674;2023-07-13T09:04:17;2.87;;;1.10;;
60730;SDS011;46580;52.114;11.674;2023-07-13T09:07:09;1.77;;;1.00;;
60730;SDS011;46580;52.114;11.674;2023-07-13T09:12:31;6.10;;;0.93;;
60730;SDS011;46580;52.114;11.674;2023-07-13T09:15:21;1.63;;;0.70;;
60730;SDS011;46580;52.114;11.674;2023-07-13T09:17:51;4.07;;;1.50;;
60730;SDS011;46580;52.114;11.674;2023-07-13T09:22:45;2.93;;;1.03;;
60730;SDS011;46580;52.114;11.674;2023-07-13T09:25:31;5.23;;;1.40;;
60730;SDS011;46580;52.114;11.674;2023-07-13T09:27:59;5.87;;;1.17;;
60730;SDS011;46580;52.114;11.674;2023-07-13T09:33:16;2.40;;;1.10;;
60730;SDS011;46580;52.114;11.674;2023-07-13T09:35:42;2.57;;;1.10;;
60730;SDS011;46580;52.114;11.674;2023-07-13T09:38:11;2.47;;;1.17;;
60730;SDS011;46580;52.114;11.674;2023-07-13T09:43:24;1.77;;;1.00;;
60730;SDS011;46580;52.114;11.674;2023-07-13T09:45:50;3.90;;;1.00;;
60730;SDS011;46580;52.114;11.674;2023-07-13T09:48:15;3.33;;;1.30;;
60730;SDS011;46580;52.114;11.674;2023-07-13T09:50:42;5.97;;;1.27;;
60730;SDS011;46580;52.114;11.674;2023-07-13T09:53:12;4.30;;;1.10;;
60730;SDS011;46580;52.114;11.674;2023-07-13T09:55:40;5.87;;;1.27;;
60730;SDS011;46580;52.114;11.674;2023-07-13T09:58:15;7.83;;;1.50;;
60730;SDS011;46580;52.114;11.674;2023-07-13T10:00:58;2.37;;;0.93;;
60730;SDS011;46580;52.114;11.674;2023-07-13T10:03:28;4.63;;;1.00;;
60730;SDS011;46580;52.114;11.674;2023-07-13T10:06:06;3.67;;;1.33;;
60730;SDS011;46580;52.114;11.674;2023-07-13T10:08:40;5.03;;;1.17;;
60730;SDS011;46580;52.114;11.674;2023-07-13T10:11:26;4.60;;;1.13;;
60730;SDS011;46580;52.114;11.674;2023-07-13T10:13:58;3.13;;;1.23;;
60730;SDS011;46580;52.114;11.674;2023-07-13T10:16:28;8.27;;;1.30;;
60730;SDS011;46580;52.114;11.674;2023-07-13T10:19:02;5.83;;;1.40;;
60730;SDS011;46580;52.114;11.674;2023-07-13T10:24:52;4.03;;;1.20;;
60730;SDS011;46580;52.114;11.674;2023-07-13T10:27:22;6.27;;;1.27;;
60730;SDS011;46580;52.114;11.674;2023-07-13T10:29:59;3.23;;;1.00;;
60730;SDS011;46580;52.114;11.674;2023-07-13T10:32:58;2.07;;;0.97;;
60730;SDS011;46580;52.114;11.674;2023-07-13T10:35:26;2.10;;;0.93;;
60730;SDS011;46580;52.114;11.674;2023-07-13T10:38:04;1.60;;;0.90;;
60730;SDS011;46580;52.114;11.674;2023-07-13T10:40:39;2.07;;;0.70;;
60730;SDS011;46580;52.114;11.674;2023-07-13T10:43:10;2.87;;;0.83;;
60730;SDS011;46580;52.114;11.674;2023-07-13T10:45:45;3.80;;;0.70;;
60730;SDS011;46580;52.114;11.674;2023-07-13T10:48:15;2.40;;;1.07;;
60730;SDS011;46580;52.114;11.674;2023-07-13T10:50:41;4.80;;;1.07;;
60730;SDS011;46580;52.114;11.674;2023-07-13T10:53:19;4.60;;;1.07;;
60730;SDS011;46580;52.114;11.674;2023-07-13T10:58:19;3.90;;;0.80;;
60730;SDS011;46580;52.114;11.674;2023-07-13T11:03:31;4.27;;;0.87;;
60730;SDS011;46580;52.114;11.674;2023-07-13T11:14:01;3.73;;;0.80;;
60730;SDS011;46580;52.114;11.674;2023-07-13T11:16:37;3.17;;;0.90;;
60730;SDS011;46580;52.114;11.674;2023-07-13T11:24:48;1.80;;;0.60;;
60730;SDS011;46580;52.114;11.674;2023-07-13T11:30:36;2.17;;;0.50;;
60730;SDS011;46580;52.114;11.674;2023-07-13T11:33:03;3.43;;;0.80;;
60730;SDS011;46580;52.114;11.674;2023-07-13T11:35:41;2.57;;;0.60;;
60730;SDS011;46580;52.114;11.674;2023-07-13T11:38:21;4.90;;;0.60;;
60730;SDS011;46580;52.114;11.674;2023-07-13T11:40:51;2.90;;;0.70;;
60730;SDS011;46580;52.114;11.674;2023-07-13T11:43:19;1.93;;;0.60;;
60730;SDS011;46580;52.114;11.674;2023-07-13T11:45:48;3.87;;;0.80;;
60730;SDS011;46580;52.114;11.674;2023-07-13T11:48:21;4.13;;;0.70;;
60730;SDS011;46580;52.114;11.674;2023-07-13T11:50:50;2.77;;;0.80;;
60730;SDS011;46580;52.114;11.674;2023-07-13T11:53:18;0.77;;;0.50;;
60730;SDS011;46580;52.114;11.674;2023-07-13T11:55:43;1.40;;;0.50;;
60730;SDS011;46580;52.114;11.674;2023-07-13T11:58:11;3.73;;;0.63;;
60730;SDS011;46580;52.114;11.674;2023-07-13T12:00:42;1.30;;;0.50;;
60730;SDS011;46580;52.114;11.674;2023-07-13T12:03:07;1.30;;;0.77;;
60730;SDS011;46580;52.114;11.674;2023-07-13T12:05:34;2.00;;;0.60;;
60730;SDS011;46580;52.114;11.674;2023-07-13T12:07:59;2.83;;;0.60;;
60730;SDS011;46580;52.114;11.674;2023-07-13T12:10:36;2.30;;;0.67;;
60730;SDS011;46580;52.114;11.674;2023-07-13T12:13:02;3.77;;;0.73;;
60730;SDS011;46580;52.114;11.674;2023-07-13T12:15:38;2.57;;;0.80;;
60730;SDS011;46580;52.114;11.674;2023-07-13T12:18:13;1.37;;;0.70;;
60730;SDS011;46580;52.114;11.674;2023-07-13T12:20:40;3.27;;;0.70;;
60730;SDS011;46580;52.114;11.674;2023-07-13T12:23:06;1.93;;;0.60;;
60730;SDS011;46580;52.114;11.674;2023-07-13T12:25:46;3.50;;;0.70;;
60730;SDS011;46580;52.114;11.674;2023-07-13T12:28:21;2.33;;;0.67;;
60730;SDS011;46580;52.114;11.674;2023-07-13T12:30:48;2.30;;;0.80;;
60730;SDS011;46580;52.114;11.674;2023-07-13T12:33:15;1.53;;;0.60;;
60730;SDS011;46580;52.114;11.674;2023-07-13T12:35:43;2.10;;;0.87;;
60730;SDS011;46580;52.114;11.674;2023-07-13T12:38:12;3.60;;;0.60;;
60730;SDS011;46580;52.114;11.674;2023-07-13T12:40:37;1.20;;;0.37;;
60730;SDS011;46580;52.114;11.674;2023-07-13T12:43:05;6.00;;;0.80;;
60730;SDS011;46580;52.114;11.674;2023-07-13T12:45:36;3.80;;;0.80;;
60730;SDS011;46580;52.114;11.674;2023-07-13T12:48:10;2.00;;;0.80;;
60730;SDS011;46580;52.114;11.674;2023-07-13T12:50:40;1.53;;;0.60;;
60730;SDS011;46580;52.114;11.674;2023-07-13T12:53:14;1.37;;;0.60;;
60730;SDS011;46580;52.114;11.674;2023-07-13T12:55:48;3.13;;;0.70;;
60730;SDS011;46580;52.114;11.674;2023-07-13T12:58:58;3.23;;;0.77;;
60730;SDS011;46580;52.114;11.674;2023-07-13T13:01:11;1.30;;;0.50;;
60730;SDS011;46580;52.114;11.674;2023-07-13T13:03:39;2.20;;;0.60;;
60730;SDS011;46580;52.114;11.674;2023-07-13T13:08:41;3.60;;;0.80;;
60730;SDS011;46580;52.114;11.674;2023-07-13T13:11:08;1.37;;;0.50;;
60730;SDS011;46580;52.114;11.674;2023-07-13T13:13:34;0.83;;;0.50;;
60730;SDS011;46580;52.114;11.674;2023-07-13T13:16:11;1.67;;;0.63;;
60730;SDS011;46580;52.114;11.674;2023-07-13T13:18:39;2.27;;;0.60;;
60730;SDS011;46580;52.114;11.674;2023-07-13T13:21:04;2.40;;;0.80;;
60730;SDS011;46580;52.114;11.674;2023-07-13T13:23:29;1.83;;;0.60;;
60730;SDS011;46580;52.114;11.674;2023-07-13T13:25:55;2.83;;;0.60;;
60730;SDS011;46580;52.114;11.674;2023-07-13T13:28:20;1.33;;;0.60;;
60730;SDS011;46580;52.114;11.674;2023-07-13T13:30:47;1.43;;;0.57;;
60730;SDS011;46580;52.114;11.674;2023-07-13T13:33:15;2.97;;;0.63;;
60730;SDS011;46580;52.114;11.674;2023-07-13T13:35:42;2.27;;;0.70;;
60730;SDS011;46580;52.114;11.674;2023-07-13T13:38:09;2.67;;;1.07;;
60730;SDS011;46580;52.114;11.674;2023-07-13T13:40:36;2.23;;;0.63;;
60730;SDS011;46580;52.114;11.674;2023-07-13T13:43:01;2.30;;;0.60;;
60730;SDS011;46580;52.114;11.674;2023-07-13T13:45:27;0.87;;;0.63;;
60730;SDS011;46580;52.114;11.674;2023-07-13T13:47:52;2.73;;;0.80;;
60730;SDS011;46580;52.114;11.674;2023-07-13T13:50:19;2.27;;;0.90;;
60730;SDS011;46580;52.114;11.674;2023-07-13T13:52:47;1.17;;;0.60;;
60730;SDS011;46580;52.114;11.674;2023-07-13T13:57:38;2.00;;;1.07;;
60730;SDS011;46580;52.114;11.674;2023-07-13T14:00:04;2.17;;;0.50;;
60730;SDS011;46580;52.114;11.674;2023-07-13T14:02:30;1.63;;;0.70;;
60730;SDS011;46580;52.114;11.674;2023-07-13T14:04:58;1.30;;;0.63;;
60730;SDS011;46580;52.114;11.674;2023-07-13T14:07:26;1.33;;;0.70;;
60730;SDS011;46580;52.114;11.674;2023-07-13T14:09:52;2.03;;;0.90;;
60730;SDS011;46580;52.114;11.674;2023-07-13T14:12:21;1.93;;;0.80;;
60730;SDS011;46580;52.114;11.674;2023-07-13T14:14:46;5.90;;;1.00;;
60730;SDS011;46580;52.114;11.674;2023-07-13T14:17:21;0.97;;;0.80;;
60730;SDS011;46580;52.114;11.674;2023-07-13T14:19:50;2.97;;;0.73;;
60730;SDS011;46580;52.114;11.674;2023-07-13T14:22:17;3.70;;;0.80;;
60730;SDS011;46580;52.114;11.674;2023-07-13T14:24:43;3.20;;;0.80;;
60730;SDS011;46580;52.114;11.674;2023-07-13T14:27:10;2.10;;;0.70;;
60730;SDS011;46580;52.114;11.674;2023-07-13T14:29:36;1.97;;;0.70;;
60730;SDS011;46580;52.114;11.674;2023-07-13T14:32:02;2.50;;;0.80;;
60730;SDS011;46580;52.114;11.674;2023-07-13T14:34:29;3.57;;;0.77;;
60730;SDS011;46580;52.114;11.674;2023-07-13T14:36:58;3.30;;;1.00;;
60730;SDS011;46580;52.114;11.674;2023-07-13T14:39:24;2.27;;;0.90;;
60730;SDS011;46580;52.114;11.674;2023-07-13T14:41:51;2.40;;;0.97;;
60730;SDS011;46580;52.114;11.674;2023-07-13T14:44:21;2.23;;;1.00;;
60730;SDS011;46580;52.114;11.674;2023-07-13T14:46:50;4.50;;;1.00;;
60730;SDS011;46580;52.114;11.674;2023-07-13T14:51:48;2.57;;;0.80;;
60730;SDS011;46580;52.114;11.674;2023-07-13T14:54:14;2.07;;;0.80;;
60730;SDS011;46580;52.114;11.674;2023-07-13T14:56:39;3.77;;;0.97;;
60730;SDS011;46580;52.114;11.674;2023-07-13T14:59:05;4.60;;;1.27;;
60730;SDS011;46580;52.114;11.674;2023-07-13T15:01:32;4.63;;;1.23;;
60730;SDS011;46580;52.114;11.674;2023-07-13T15:03:58;2.17;;;1.00;;
60730;SDS011;46580;52.114;11.674;2023-07-13T15:06:24;3.47;;;0.80;;
60730;SDS011;46580;52.114;11.674;2023-07-13T15:08:49;4.00;;;1.10;;
60730;SDS011;46580;52.114;11.674;2023-07-13T15:11:15;2.43;;;0.77;;
60730;SDS011;46580;52.114;11.674;2023-07-13T15:13:41;2.20;;;0.80;;
60730;SDS011;46580;52.114;11.674;2023-07-13T15:16:14;4.43;;;1.20;;
60730;SDS011;46580;52.114;11.674;2023-07-13T15:18:42;2.70;;;1.07;;
60730;SDS011;46580;52.114;11.674;2023-07-13T15:21:11;2.40;;;0.87;;
60730;SDS011;46580;52.114;11.674;2023-07-13T15:23:39;2.60;;;1.20;;
60730;SDS011;46580;52.114;11.674;2023-07-13T15:26:05;3.57;;;1.00;;
60730;SDS011;46580;52.114;11.674;2023-07-13T15:28:32;2.23;;;0.90;;